AirNav   Duncan Aviation - Near you to keep you flying
 
 1664 users online  

69CL Medlock Field Airport
Davis, California, USA

GOING TO DAVIS?


FAA INFORMATION EFFECTIVE 30 DECEMBER 2021

Location

FAA Identifier: 69CL
Lat/Long: 38-36-55.6600N 121-44-50.8640W
38-36.927667N 121-44.847733W
38.6154611,-121.7474622
(estimated)
Elevation: 48 ft. / 15 m (estimated)
Variation: 16E (1985)
From city: 3 miles N of DAVIS, CA
Time zone: UTC -8 (UTC -7 during Daylight Saving Time)
Zip code: 95776

Airport Operations

Airport use: Private use. Permission required prior to landing
Activation date: 04/1974
Control tower: no
ARTCC: OAKLAND CENTER
FSS: RANCHO MURIETA FLIGHT SERVICE STATION
Attendance: MON-SAT DAYLIGHT HOURS
Wind indicator: yes
Segmented circle: no

Airport Communications

WX AWOS-3 at EDU (5 nm S): 119.025 (530-754-6839)
WX AWOS-3P at DWA (6 nm SW): 125.775 (530-750-2759)
WX ASOS at SMF (9 nm NE): PHONE 916-649-3996
WX ASOS at SAC (13 nm SE): PHONE 916-421-0923
WX AWOS-3 at MCC (17 nm E): 125.975 (916-641-1272)
WX ASOS at VCB (17 nm SW): 134.75 (707-448-1594)

Nearby radio navigation aids

VOR radial/distance  VOR name  Freq  Var
SACr301/13.8SACRAMENTO VORTAC115.2017E
MCCr242/16.4MC CLELLAN VOR/DME109.2017E
MYVr180/30.1MARYSVILLE VOR/DME110.8016E
ILAr136/30.3WILLIAMS VORTAC114.4018E
CCRr005/37.0CONCORD VOR/DME117.0017E
SGDr031/39.4SCAGGS ISLAND VORTAC112.1017E

Airport Services

Airframe service: NONE
Powerplant service: NONE

Runway Information

Runway 18/36

Dimensions: 2600 x 50 ft. / 792 x 15 m
Surface: asphalt
RUNWAY 18  RUNWAY 36
Traffic pattern: leftleft

Airport Ownership and Management from official FAA records

Ownership: Privately-owned
Owner: RALPH HOLSCLAW
41167 COUNTY ROAD 27
WOODLAND, CA 95776
Phone 916-662-7341
Manager: RALPH HOLSCLAW
41167 COUNTY ROAD 27
WOODLAND, CA 95776
Phone 916-662-7341

Airport Operational Statistics

Aircraft based on the field: 15
Single engine airplanes: 15
    

Additional Remarks

FOR CD CTC NORCAL APCH AT 916-361-6874.

Instrument Procedures

There are no published instrument procedures at 69CL.

Some nearby airports with instrument procedures:

KEDU - University Airport (5 nm S)
KDWA - Yolo County Airport (6 nm SW)
O41 - Watts-Woodland Airport (7 nm NW)
KSMF - Sacramento International Airport (9 nm NE)
KSAC - Sacramento Executive Airport (13 nm SE)
KMCC - Mc Clellan Airfield (17 nm E)
KVCB - Nut Tree Airport (17 nm SW)
 
Loc | Ops | Rwys | IFR | FBO | Links
Com | Nav | Svcs | Stats | Notes

Sonoma Jet Center
 
Area around 69CL (Medlock Field Airport)
 
Road maps at: MapQuest Bing Google
 
Aerial photo
No photo
 
Sectional chart

 
Airport distance calculator
Flying to Medlock Field Airport? Find the distance to fly.

From to 69CL

Sunrise and sunset
Times for 20-Jan-2022
 Local
(UTC-8)
 Zulu
(UTC)
Morning civil twilight06:5314:53
Sunrise07:2215:22
Sunset17:1401:14
Evening civil twilight17:4301:43

Current date and time
Zulu (UTC)  20-Jan-2022 22:34:49
Local (UTC-8)  20-Jan-2022 14:34:49
 
METAR
KEDU 
5nm S 
202200Z AUTO 00000KT 10SM CLR 16/08 A3030 RMK AO1
KDWA 
6nm SW 
202215Z AUTO A3030 RMK AO2
KSMF 
9nm NE 
202153Z 21004KT 9SM SCT250 16/09 A3030 RMK AO2 SLP258 T01560089
KSAC 
14nm SE 
202153Z 00000KT 10SM CLR 16/08 A3029 RMK AO2 SLP258 T01610083
KMCC 
17nm E 
202215Z AUTO 29004KT 10SM CLR 17/07 A3029 RMK AO2
KVCB 
17nm SW 
202153Z AUTO 00000KT 9SM CLR 17/08 A3031 RMK AO2 SLP261 T01670078
TAF
KSMF 
9nm NE 
201127Z 2012/2112 VRB03KT 4SM BR SCT250 TEMPO 2014/2016 2SM BR BCFG BKN003 FM201800 33007KT P6SM SCT250
KSAC 
14nm SE 
201410Z 2014/2112 VRB03KT 4SM BR SCT250 TEMPO 2014/2017 3/4SM BR SCT003 FM201800 VRB05KT P6SM SCT250
KMCC 
17nm E 
201724Z 2018/2118 16005KT P6SM SCT250
NOTAMs
Click for the latest NOTAMs
NOTAMs are issued by the DoD/FAA and will open in a separate window not controlled by AirNav.

 

 
 

Would you like to see your business listed on this page?

 If your business provides an interesting product or service to pilots, flight crews, aircraft, or users of the Medlock Field Airport, you should consider listing it here.  To start the listing process, click on the button below
 
Add a business
 

Other Pages about Medlock Field Airport

Update a link
 
Copyright © AirNav, LLC. All rights reserved. Privacy Policy  Contact